Terminal Aerodrome Forecast
Issued by NWS Charleston, WV

Home | Current Version | Previous Version | Text Only | Print | Product List | Glossary On
Versions: 1 2 3 4 5 6 7 8 9 10 11 12 13 14 15 16 17 18 19 20 21 22 23 24
000
FTUS41 KRLX 211500 AAA
TAFHTS
TAF AMD
KHTS 211509Z 2115/2212 20007KT P6SM BKN020 BKN026
     FM211800 24012G23KT 6SM -TSRA BKN025CB
     FM211900 25012G24KT P6SM VCTS BKN025CB
     FM212100 26010G19KT P6SM VCTS BKN035CB
     FM212300 30011G17KT P6SM SCT040
     FM220200 31007KT P6SM SCT040
     FM220500 32005KT 6SM BR SCT040
     FM220700 32004KT 5SM BR BKN025
     FM221000 32004KT 5SM BR BKN015=

USA.gov is the U.S. government's official web portal to all federal, state and local government web resources and services.